createdAt,value
2023-04-26T00:02:11.025Z,5.43
2023-04-26T00:07:15.972Z,6.38
2023-04-26T00:12:19.597Z,5.75
2023-04-26T00:17:25.159Z,6.32
2023-04-26T00:22:29.005Z,6.05
2023-04-26T00:27:32.583Z,5.90
2023-04-26T00:32:37.691Z,6.35
2023-04-26T00:37:41.729Z,7.70
2023-04-26T00:42:45.210Z,8.20
2023-04-26T00:47:50.215Z,7.57
2023-04-26T00:52:54.193Z,7.35
2023-04-26T00:57:57.872Z,7.17
2023-04-26T01:03:03.201Z,8.00
2023-04-26T01:08:08.114Z,8.18
2023-04-26T01:18:16.680Z,7.05
2023-04-26T01:23:21.665Z,7.22
2023-04-26T01:28:25.246Z,7.55
2023-04-26T01:33:28.731Z,7.40
2023-04-26T01:38:33.628Z,6.65
2023-04-26T01:43:37.336Z,5.85
2023-04-26T01:48:40.850Z,7.25
2023-04-26T01:53:45.739Z,6.13
2023-04-26T01:58:49.379Z,5.93
2023-04-26T02:03:53.656Z,6.37
2023-04-26T02:08:59.103Z,6.22
2023-04-26T02:14:02.624Z,5.53
2023-04-26T02:19:11.070Z,6.30
2023-04-26T02:24:16.052Z,5.50
2023-04-26T02:29:24.628Z,6.18
2023-04-26T02:34:39.610Z,5.82
2023-04-26T02:39:44.509Z,5.90
2023-04-26T02:44:48.408Z,5.50
2023-04-26T02:49:52.797Z,5.30
2023-04-26T02:54:58.028Z,5.47
2023-04-26T03:00:01.542Z,4.72
2023-04-26T03:05:07.954Z,4.90
2023-04-26T03:10:13.486Z,4.30
2023-04-26T03:15:17.172Z,4.50
2023-04-26T03:20:21.074Z,4.80
2023-04-26T03:25:26.072Z,3.80
2023-04-26T03:30:29.572Z,3.40
2023-04-26T03:35:33.092Z,3.28
2023-04-26T03:40:37.964Z,3.35
2023-04-26T03:45:41.578Z,3.22
2023-04-26T03:50:46.646Z,3.17
2023-04-26T03:55:51.546Z,4.00
2023-04-26T04:00:58.218Z,3.00
2023-04-26T04:06:01.896Z,3.05
2023-04-26T04:11:07.096Z,2.50
2023-04-26T04:16:10.865Z,2.92
2023-04-26T04:21:14.513Z,2.90
2023-04-26T04:26:19.414Z,2.45
2023-04-26T04:31:23.069Z,2.55
2023-04-26T04:36:26.995Z,3.20
2023-04-26T04:41:32.465Z,2.53
2023-04-26T04:46:36.105Z,2.65
2023-04-26T04:51:39.784Z,2.72
2023-04-26T04:56:45.130Z,2.55
2023-04-26T05:01:48.857Z,2.70
2023-04-26T05:06:52.496Z,3.10
2023-04-26T05:11:57.400Z,2.60
2023-04-26T05:17:00.950Z,2.50
2023-04-26T05:22:04.767Z,4.60
2023-04-26T05:27:09.593Z,2.50
2023-04-26T05:32:13.274Z,2.50
2023-04-26T05:37:17.402Z,2.70
2023-04-26T05:42:22.451Z,3.08
2023-04-26T05:47:26.255Z,2.85
2023-04-26T05:52:30.003Z,2.40
2023-04-26T05:57:35.703Z,3.25
2023-04-26T06:02:39.299Z,3.10
2023-04-26T06:07:42.829Z,2.70
2023-04-26T06:12:48.340Z,2.90
2023-04-26T06:17:51.905Z,2.53
2023-04-26T06:22:55.775Z,2.67
2023-04-26T06:28:01.107Z,3.07
2023-04-26T06:33:04.825Z,3.10
2023-04-26T06:38:08.436Z,3.00
2023-04-26T06:43:13.301Z,2.55
2023-04-26T06:48:16.729Z,3.30
2023-04-26T06:53:22.406Z,3.10
2023-04-26T06:58:28.041Z,3.20
2023-04-26T07:03:32.889Z,3.20
2023-04-26T07:08:36.565Z,3.20
2023-04-26T07:13:41.472Z,3.58
2023-04-26T07:18:45.152Z,3.90
2023-04-26T07:23:48.630Z,3.80
2023-04-26T07:28:54.191Z,3.80
2023-04-26T07:33:57.828Z,3.75
2023-04-26T07:39:01.441Z,3.40
2023-04-26T07:44:06.860Z,3.07
2023-04-26T07:49:10.542Z,3.28
2023-04-26T07:54:14.241Z,2.92
2023-04-26T07:59:19.161Z,3.30
2023-04-26T08:04:33.882Z,3.47
2023-04-26T08:09:37.856Z,3.70
2023-04-26T08:14:42.917Z,3.83
2023-04-26T08:19:46.648Z,3.30
2023-04-26T08:24:51.284Z,3.90
2023-04-26T08:29:56.194Z,3.90
2023-04-26T08:34:59.663Z,3.78
2023-04-26T08:40:03.569Z,4.35
2023-04-26T08:45:11.674Z,4.55
2023-04-26T08:50:17.152Z,3.60
2023-04-26T08:55:22.258Z,3.63
2023-04-26T09:00:27.768Z,3.70
2023-04-26T09:05:31.349Z,4.80
2023-04-26T09:10:35.614Z,4.90
2023-04-26T09:15:40.677Z,6.25
2023-04-26T09:20:45.784Z,4.95
2023-04-26T09:25:49.872Z,4.63
2023-04-26T09:30:54.929Z,3.55
2023-04-26T09:36:13.139Z,3.15
2023-04-26T09:41:16.753Z,4.55
2023-04-26T09:46:25.362Z,2.60
2023-04-26T09:51:29.504Z,3.00
2023-04-26T09:56:33.057Z,2.33
2023-04-26T10:01:38.723Z,2.23
2023-04-26T10:06:42.403Z,1.92
2023-04-26T10:11:45.974Z,2.17
2023-04-26T10:16:51.646Z,2.33
2023-04-26T10:21:59.889Z,1.50
2023-04-26T10:27:04.501Z,2.10
2023-04-26T10:37:20.739Z,1.45
2023-04-26T10:42:27.359Z,1.63
2023-04-26T10:47:34.509Z,1.60
2023-04-26T10:52:39.908Z,1.40
2023-04-26T10:57:51.599Z,1.70
2023-04-26T11:02:59.301Z,1.30
2023-04-26T11:08:07.070Z,1.65
2023-04-26T11:13:11.109Z,2.00
2023-04-26T11:18:20.391Z,1.70
2023-04-26T11:23:24.761Z,1.63
2023-04-26T11:28:28.256Z,1.50
2023-04-26T11:33:34.729Z,1.80
2023-04-26T11:38:39.775Z,1.50
2023-04-26T11:43:43.280Z,1.40
2023-04-26T11:48:48.482Z,1.37
2023-04-26T11:53:53.086Z,1.50
2023-04-26T11:58:58.448Z,1.30
2023-04-26T12:04:03.441Z,1.70
2023-04-26T12:09:07.034Z,1.60
2023-04-26T12:14:11.638Z,1.83
2023-04-26T12:24:25.541Z,2.25
2023-04-26T12:29:30.847Z,2.72
2023-04-26T12:34:35.866Z,2.58
2023-04-26T12:39:39.425Z,1.70
2023-04-26T12:44:42.995Z,1.50
2023-04-26T12:49:47.891Z,1.90
2023-04-26T12:54:51.477Z,2.10
2023-04-26T12:59:56.165Z,2.27
2023-04-26T13:05:04.665Z,1.98
2023-04-26T13:10:13.109Z,1.90
2023-04-26T13:15:17.726Z,1.90
2023-04-26T13:20:25.440Z,1.85
2023-04-26T13:25:29.708Z,2.00
2023-04-26T13:30:33.298Z,2.42
2023-04-26T13:35:38.342Z,2.40
2023-04-26T13:40:41.959Z,2.45
2023-04-26T13:45:45.588Z,3.17
2023-04-26T13:50:50.760Z,2.87
2023-04-26T13:55:54.313Z,2.75
2023-04-26T14:00:58.304Z,3.00
2023-04-26T14:06:03.711Z,2.60
2023-04-26T14:11:08.045Z,2.90
2023-04-26T14:21:18.473Z,2.95
2023-04-26T14:26:23.917Z,2.40
2023-04-26T14:31:28.272Z,2.72
2023-04-26T14:36:33.366Z,3.22
2023-04-26T14:41:37.531Z,2.80
2023-04-26T14:46:41.783Z,3.13
2023-04-26T14:51:46.841Z,2.50
2023-04-26T14:56:51.482Z,2.95
2023-04-26T15:01:55.137Z,3.03
2023-04-26T15:07:00.322Z,2.60
2023-04-26T15:12:04.932Z,3.03
2023-04-26T15:17:08.651Z,2.55
2023-04-26T15:22:13.805Z,2.93
2023-04-26T15:27:17.673Z,3.10
2023-04-26T15:32:21.224Z,3.63
2023-04-26T15:37:26.479Z,2.85
2023-04-26T15:42:30.120Z,3.28
2023-04-26T15:47:35.355Z,3.03
2023-04-26T15:52:40.861Z,3.20
2023-04-26T15:57:44.406Z,3.63
2023-04-26T16:02:48.009Z,3.22
2023-04-26T16:07:53.060Z,2.57
2023-04-26T16:12:56.733Z,3.20
2023-04-26T16:18:00.423Z,2.93
2023-04-26T16:23:05.903Z,2.93
2023-04-26T16:28:11.802Z,2.60
2023-04-26T16:33:15.941Z,2.95
2023-04-26T16:38:20.910Z,2.42
2023-04-26T16:43:24.767Z,2.53
2023-04-26T16:48:28.390Z,2.00
2023-04-26T16:53:33.584Z,1.90
2023-04-26T16:58:37.144Z,1.88
2023-04-26T17:03:41.496Z,1.90
2023-04-26T17:08:46.494Z,1.88
2023-04-26T17:13:49.943Z,2.00
2023-04-26T17:18:53.514Z,2.05
2023-04-26T17:23:58.380Z,1.80
2023-04-26T17:29:01.920Z,1.90
2023-04-26T17:34:05.984Z,1.88
2023-04-26T17:39:10.866Z,1.75
2023-04-26T17:44:14.825Z,1.85
2023-04-26T17:49:18.276Z,1.80
2023-04-26T17:54:24.356Z,2.10
2023-04-26T17:59:27.856Z,2.53
2023-04-26T18:04:31.745Z,11.30
2023-04-26T18:09:37.121Z,2.00
2023-04-26T18:14:45.087Z,2.30
2023-04-26T18:19:48.817Z,2.50
2023-04-26T18:24:53.689Z,2.85
2023-04-26T18:29:57.204Z,2.60
2023-04-26T18:35:00.857Z,3.00
2023-04-26T18:40:07.430Z,2.75
2023-04-26T18:45:11.625Z,2.70
2023-04-26T18:50:15.111Z,3.00
2023-04-26T18:55:20.290Z,3.03
2023-04-26T19:00:24.032Z,3.10
2023-04-26T19:05:27.703Z,3.07
2023-04-26T19:10:32.846Z,3.05
2023-04-26T19:15:36.655Z,3.40
2023-04-26T19:20:40.333Z,3.60
2023-04-26T19:25:45.247Z,3.55
2023-04-26T19:30:48.755Z,3.50
2023-04-26T19:35:52.384Z,3.53
2023-04-26T19:40:57.257Z,3.80
2023-04-26T19:46:00.768Z,3.58
2023-04-26T19:51:04.288Z,3.80
2023-04-26T19:56:11.009Z,3.78
2023-04-26T20:01:14.568Z,3.80
2023-04-26T20:06:18.032Z,4.15
2023-04-26T20:11:22.972Z,4.00
2023-04-26T20:16:26.505Z,4.43
2023-04-26T20:21:30.114Z,4.32
2023-04-26T20:26:35.014Z,4.10
2023-04-26T20:36:41.726Z,4.50
2023-04-26T20:41:46.597Z,4.63
2023-04-26T20:51:53.187Z,4.93
2023-04-26T20:56:58.080Z,4.78
2023-04-26T21:02:01.701Z,4.70
2023-04-26T21:07:05.592Z,4.38
2023-04-26T21:12:10.602Z,4.60
2023-04-26T21:17:14.092Z,4.60
2023-04-26T21:22:17.672Z,4.53
2023-04-26T21:27:22.589Z,5.75
2023-04-26T21:32:26.155Z,6.45
2023-04-26T21:37:29.756Z,6.18
2023-04-26T21:42:34.661Z,6.00
2023-04-26T21:47:38.198Z,6.00
2023-04-26T21:52:42.113Z,5.60
2023-04-26T21:57:47.152Z,5.73
2023-04-26T22:02:51.638Z,5.80
2023-04-26T22:07:55.313Z,7.13
2023-04-26T22:13:00.258Z,7.55
2023-04-26T22:18:03.834Z,8.52
2023-04-26T22:23:07.401Z,8.45
2023-04-26T22:28:12.306Z,8.65
2023-04-26T22:38:18.862Z,6.82
2023-04-26T22:43:23.783Z,6.78
2023-04-26T22:53:30.650Z,6.85
2023-04-26T22:58:35.563Z,7.35
2023-04-26T23:08:42.593Z,6.78
2023-04-26T23:13:49.094Z,7.55
2023-04-26T23:18:52.587Z,8.00
2023-04-26T23:23:56.615Z,8.25
2023-04-26T23:29:01.511Z,8.60
2023-04-26T23:39:09.922Z,9.73
2023-04-26T23:44:14.810Z,8.93
2023-04-26T23:54:21.572Z,9.55
2023-04-26T23:59:26.552Z,7.70
